createdAt,value
2023-05-24T00:00:47.522Z,78.21
2023-05-24T00:03:18.795Z,78.28
2023-05-24T00:06:00.532Z,78.54
2023-05-24T00:08:43.196Z,79.08
2023-05-24T00:11:12.017Z,79.04
2023-05-24T00:13:40.365Z,79.48
2023-05-24T00:16:08.670Z,79.21
2023-05-24T00:18:41.033Z,79.72
2023-05-24T00:21:11.933Z,79.53
2023-05-24T00:23:41.969Z,80.51
2023-05-24T00:26:10.506Z,80.16
2023-05-24T00:28:38.778Z,80.42
2023-05-24T00:31:08.292Z,81.05
2023-05-24T00:33:38.744Z,81.49
2023-05-24T00:36:11.470Z,81.64
2023-05-24T00:38:39.823Z,82.30
2023-05-24T00:41:08.217Z,82.50
2023-05-24T00:43:37.114Z,82.31
2023-05-24T00:46:14.665Z,82.59
2023-05-24T00:48:46.034Z,83.02
2023-05-24T00:51:16.706Z,83.72
2023-05-24T00:53:46.837Z,83.52
2023-05-24T00:56:18.531Z,84.05
2023-05-24T00:58:47.963Z,84.26
2023-05-24T01:01:16.423Z,84.37
2023-05-24T01:03:46.244Z,84.62
2023-05-24T01:06:17.633Z,84.98
2023-05-24T01:08:56.124Z,85.41
2023-05-24T01:11:30.249Z,85.44
2023-05-24T01:14:03.972Z,85.85
2023-05-24T01:16:37.982Z,85.80
2023-05-24T01:19:13.247Z,86.36
2023-05-24T01:21:50.572Z,86.13
2023-05-24T01:24:26.303Z,87.04
2023-05-24T01:27:03.264Z,87.07
2023-05-24T01:29:32.172Z,88.01
2023-05-24T01:32:00.502Z,88.10
2023-05-24T01:34:28.873Z,88.90
2023-05-24T01:36:57.348Z,88.91
2023-05-24T01:39:28.414Z,88.99
2023-05-24T01:42:01.088Z,89.55
2023-05-24T01:44:37.704Z,89.59
2023-05-24T01:47:12.762Z,89.42
2023-05-24T01:49:46.199Z,90.46
2023-05-24T01:52:17.336Z,90.33
2023-05-24T01:54:50.556Z,90.93
2023-05-24T01:57:20.647Z,91.57
2023-05-24T01:59:51.026Z,91.49
2023-05-24T02:02:22.587Z,91.79
2023-05-24T02:04:51.125Z,91.76
2023-05-24T02:07:19.354Z,92.24
2023-05-24T02:09:50.937Z,91.48
2023-05-24T02:12:19.147Z,92.10
2023-05-24T02:14:51.016Z,92.70
2023-05-24T02:17:20.704Z,92.64
2023-05-24T02:19:49.019Z,93.26
2023-05-24T02:22:17.525Z,93.03
2023-05-24T02:24:49.376Z,93.37
2023-05-24T02:27:17.728Z,94.02
2023-05-24T02:29:45.980Z,94.59
2023-05-24T02:32:17.074Z,95.02
2023-05-24T02:34:46.747Z,95.26
2023-05-24T02:37:15.178Z,95.24
2023-05-24T02:39:43.886Z,95.55
2023-05-24T02:42:12.132Z,95.59
2023-05-24T02:44:42.462Z,94.86
2023-05-24T02:47:10.823Z,95.14
2023-05-24T02:49:40.164Z,95.46
2023-05-24T02:52:11.559Z,95.33
2023-05-24T02:54:40.194Z,95.82
2023-05-24T02:57:11.696Z,95.79
2023-05-24T03:00:00.425Z,96.00
2023-05-24T03:02:30.078Z,95.80
2023-05-24T03:04:58.411Z,96.00
2023-05-24T03:07:28.513Z,96.32
2023-05-24T03:09:58.140Z,95.50
2023-05-24T03:12:26.600Z,95.70
2023-05-24T03:14:58.228Z,95.71
2023-05-24T03:17:26.580Z,95.18
2023-05-24T03:19:55.170Z,94.74
2023-05-24T03:22:23.540Z,94.70
2023-05-24T03:24:53.424Z,95.78
2023-05-24T03:27:25.700Z,95.80
2023-05-24T03:29:54.120Z,95.87
2023-05-24T03:32:22.510Z,95.98
2023-05-24T03:34:51.004Z,95.77
2023-05-24T03:37:19.456Z,95.79
2023-05-24T03:39:47.848Z,95.61
2023-05-24T03:42:17.713Z,95.43
2023-05-24T03:44:46.244Z,95.77
2023-05-24T03:47:14.854Z,95.99
2023-05-24T03:49:45.817Z,96.21
2023-05-24T03:52:14.310Z,95.91
2023-05-24T03:54:42.776Z,95.68
2023-05-24T03:57:11.069Z,96.17
2023-05-24T03:59:43.353Z,95.76
2023-05-24T04:02:11.803Z,93.72
2023-05-24T04:04:40.728Z,93.35
2023-05-24T04:07:11.918Z,92.05
2023-05-24T04:09:40.724Z,91.31
2023-05-24T04:12:09.194Z,90.94
2023-05-24T04:14:37.496Z,91.09
2023-05-24T04:17:07.878Z,91.70
2023-05-24T04:19:36.538Z,91.22
2023-05-24T04:22:07.715Z,91.51
2023-05-24T04:24:36.709Z,92.14
2023-05-24T04:27:09.914Z,92.35
2023-05-24T04:29:38.232Z,92.23
2023-05-24T04:32:10.105Z,91.74
2023-05-24T04:34:42.988Z,92.73
2023-05-24T04:37:11.884Z,91.89
2023-05-24T04:39:43.258Z,91.72
2023-05-24T04:42:12.270Z,90.65
2023-05-24T04:44:41.672Z,90.55
2023-05-24T04:47:13.084Z,90.77
2023-05-24T04:49:41.795Z,90.29
2023-05-24T04:52:10.465Z,90.82
2023-05-24T04:54:39.657Z,90.15
2023-05-24T04:57:08.721Z,90.46
2023-05-24T04:59:37.051Z,90.41
2023-05-24T05:02:05.750Z,89.80
2023-05-24T05:04:35.398Z,88.23
2023-05-24T05:07:04.323Z,87.63
2023-05-24T05:09:35.262Z,87.60
2023-05-24T05:12:03.761Z,86.73
2023-05-24T05:14:32.758Z,86.26
2023-05-24T05:17:01.367Z,85.77
2023-05-24T05:19:29.793Z,86.01
2023-05-24T05:21:59.779Z,84.21
2023-05-24T05:24:28.085Z,84.72
2023-05-24T05:26:56.451Z,83.92
2023-05-24T05:29:27.820Z,81.79
2023-05-24T05:31:56.223Z,80.27
2023-05-24T05:34:24.790Z,78.04
2023-05-24T05:36:53.325Z,78.21
2023-05-24T05:39:23.246Z,78.77
2023-05-24T05:41:59.390Z,78.93
2023-05-24T05:44:27.811Z,78.56
2023-05-24T05:46:57.707Z,78.21
2023-05-24T05:49:26.339Z,77.88
2023-05-24T05:51:55.935Z,76.51
2023-05-24T05:54:27.897Z,75.36
2023-05-24T05:56:56.565Z,74.70
2023-05-24T05:59:27.290Z,72.22
2023-05-24T06:01:58.848Z,72.17
2023-05-24T06:04:27.571Z,71.29
2023-05-24T06:06:59.909Z,70.85
2023-05-24T06:09:29.748Z,71.07
2023-05-24T06:11:58.437Z,69.85
2023-05-24T06:14:27.105Z,68.56
2023-05-24T06:16:56.275Z,69.76
2023-05-24T06:19:30.073Z,68.58
2023-05-24T06:22:01.461Z,68.95
2023-05-24T06:24:31.232Z,68.93
2023-05-24T06:26:59.845Z,68.43
2023-05-24T06:29:28.154Z,67.99
2023-05-24T06:31:56.724Z,67.31
2023-05-24T06:34:25.664Z,66.77
2023-05-24T06:36:54.073Z,65.91
2023-05-24T06:39:25.022Z,66.36
2023-05-24T06:41:54.912Z,66.30
2023-05-24T06:44:25.337Z,65.93
2023-05-24T06:46:56.519Z,65.53
2023-05-24T06:49:24.909Z,64.96
2023-05-24T06:51:53.226Z,64.32
2023-05-24T06:54:22.792Z,64.19
2023-05-24T06:56:51.762Z,64.08
2023-05-24T06:59:21.968Z,63.65
2023-05-24T07:01:53.772Z,64.13
2023-05-24T07:04:24.298Z,64.24
2023-05-24T07:06:52.912Z,64.17
2023-05-24T07:09:24.802Z,64.04
2023-05-24T07:11:53.574Z,61.31
2023-05-24T07:14:26.244Z,58.10
2023-05-24T07:16:57.318Z,56.39
2023-05-24T07:19:29.145Z,53.60
2023-05-24T07:21:57.928Z,53.72
2023-05-24T07:24:26.579Z,53.43
2023-05-24T07:26:56.607Z,53.49
2023-05-24T07:29:26.845Z,52.11
2023-05-24T07:31:58.277Z,53.27
2023-05-24T07:34:30.050Z,51.49
2023-05-24T07:37:01.305Z,51.31
2023-05-24T07:39:29.643Z,50.23
2023-05-24T07:41:58.013Z,51.30
2023-05-24T07:44:27.870Z,51.06
2023-05-24T07:47:04.551Z,51.49
2023-05-24T07:49:33.586Z,52.40
2023-05-24T07:52:03.892Z,53.19
2023-05-24T07:54:32.344Z,54.38
2023-05-24T07:57:02.079Z,54.22
2023-05-24T07:59:36.510Z,55.91
2023-05-24T08:02:05.791Z,56.81
2023-05-24T08:04:34.078Z,57.58
2023-05-24T08:07:03.354Z,55.92
2023-05-24T08:09:35.595Z,55.81
2023-05-24T08:12:04.932Z,54.54
2023-05-24T08:14:33.407Z,54.82
2023-05-24T08:17:03.127Z,54.25
2023-05-24T08:19:35.938Z,53.99
2023-05-24T08:22:05.992Z,53.43
2023-05-24T08:24:34.526Z,53.82
2023-05-24T08:27:04.393Z,52.96
2023-05-24T08:29:32.832Z,51.84
2023-05-24T08:32:04.179Z,51.13
2023-05-24T08:34:33.550Z,47.96
2023-05-24T08:37:02.174Z,47.56
2023-05-24T08:39:30.942Z,47.37
2023-05-24T08:42:09.503Z,48.46
2023-05-24T08:44:41.153Z,47.56
2023-05-24T08:47:14.316Z,47.82
2023-05-24T08:49:44.239Z,48.77
2023-05-24T08:52:14.100Z,46.81
2023-05-24T08:54:43.221Z,46.81
2023-05-24T08:57:12.217Z,47.14
2023-05-24T08:59:48.400Z,48.55
2023-05-24T09:02:18.985Z,48.65
2023-05-24T09:04:49.636Z,49.49
2023-05-24T09:07:19.275Z,50.70
2023-05-24T09:09:48.871Z,50.41
2023-05-24T09:12:35.569Z,50.21
2023-05-24T09:15:08.310Z,50.26
2023-05-24T09:17:40.684Z,49.25
2023-05-24T09:20:12.688Z,47.81
2023-05-24T09:22:42.847Z,47.04
2023-05-24T09:25:13.722Z,46.75
2023-05-24T09:27:53.071Z,47.02
2023-05-24T09:30:22.040Z,47.93
2023-05-24T09:32:59.193Z,48.36
2023-05-24T09:35:28.591Z,48.53
2023-05-24T09:38:00.030Z,48.37
2023-05-24T09:40:29.346Z,45.55
2023-05-24T09:43:05.180Z,42.27
2023-05-24T09:45:33.757Z,36.19
2023-05-24T09:48:07.572Z,34.64
2023-05-24T09:50:36.414Z,34.91
2023-05-24T09:53:04.876Z,37.60
2023-05-24T09:55:37.109Z,38.90
2023-05-24T09:58:08.185Z,40.44
2023-05-24T10:00:39.671Z,42.85
2023-05-24T10:03:11.014Z,43.72
2023-05-24T10:05:42.950Z,45.47
2023-05-24T10:08:11.590Z,46.05
2023-05-24T10:10:40.009Z,47.44
2023-05-24T10:13:08.705Z,48.15
2023-05-24T10:15:37.085Z,49.41
2023-05-24T10:18:10.680Z,49.06
2023-05-24T10:20:44.073Z,45.64
2023-05-24T10:23:16.991Z,43.18
2023-05-24T10:25:48.293Z,37.27
2023-05-24T10:28:19.930Z,34.45
2023-05-24T10:30:53.945Z,30.84
2023-05-24T10:33:24.229Z,30.93
2023-05-24T10:35:54.970Z,31.78
2023-05-24T10:38:24.129Z,33.56
2023-05-24T10:40:52.735Z,35.92
2023-05-24T10:43:22.509Z,37.94
2023-05-24T10:45:51.253Z,40.14
2023-05-24T10:48:42.263Z,42.03
2023-05-24T10:51:29.283Z,43.62
2023-05-24T10:53:59.641Z,45.12
2023-05-24T10:56:28.521Z,46.32
2023-05-24T10:59:01.006Z,47.01
2023-05-24T11:01:30.339Z,47.53
2023-05-24T11:04:07.804Z,47.60
2023-05-24T11:06:49.363Z,47.02
2023-05-24T11:09:20.229Z,46.02
2023-05-24T11:11:50.078Z,45.71
2023-05-24T11:14:24.371Z,45.89
2023-05-24T11:16:52.898Z,45.93
2023-05-24T11:19:21.790Z,45.74
2023-05-24T11:21:50.803Z,46.92
2023-05-24T11:24:21.741Z,46.87
2023-05-24T11:26:51.323Z,48.75
2023-05-24T11:29:22.280Z,47.88
2023-05-24T11:31:52.524Z,47.99
2023-05-24T11:34:21.450Z,48.52
2023-05-24T11:36:50.012Z,47.84
2023-05-24T11:39:18.615Z,48.30
2023-05-24T11:41:48.491Z,48.26
2023-05-24T11:44:18.174Z,49.04
2023-05-24T11:46:47.104Z,48.37
2023-05-24T11:49:16.122Z,49.05
2023-05-24T11:51:44.831Z,48.58
2023-05-24T11:54:13.241Z,48.48
2023-05-24T11:56:41.629Z,47.71
2023-05-24T11:59:15.633Z,47.87
2023-05-24T12:01:44.395Z,48.12
2023-05-24T12:04:12.934Z,47.95
2023-05-24T12:06:42.811Z,46.94
2023-05-24T12:09:13.479Z,46.14
2023-05-24T12:11:42.361Z,46.36
2023-05-24T12:14:15.448Z,44.57
2023-05-24T12:16:44.288Z,44.23
2023-05-24T12:19:31.369Z,42.82
2023-05-24T12:22:02.093Z,41.99
2023-05-24T12:24:32.704Z,43.50
2023-05-24T12:27:03.431Z,42.24
2023-05-24T12:29:37.695Z,41.96
2023-05-24T12:32:12.319Z,42.80
2023-05-24T12:34:42.028Z,43.32
2023-05-24T12:37:36.621Z,43.36
2023-05-24T12:40:15.649Z,43.17
2023-05-24T12:42:45.148Z,40.30
2023-05-24T12:45:14.924Z,37.85
2023-05-24T12:47:44.457Z,35.24
2023-05-24T12:50:12.808Z,35.65
2023-05-24T12:52:41.148Z,36.40
2023-05-24T12:55:09.587Z,37.75
2023-05-24T12:57:38.434Z,36.68
2023-05-24T13:00:13.207Z,36.25
2023-05-24T13:02:50.066Z,37.28
2023-05-24T13:05:19.653Z,38.04
2023-05-24T13:07:53.325Z,35.43
2023-05-24T13:10:22.316Z,31.33
2023-05-24T13:12:51.060Z,32.17
2023-05-24T13:15:23.125Z,31.23
2023-05-24T13:17:53.554Z,32.17
2023-05-24T13:20:24.088Z,33.19
2023-05-24T13:22:52.556Z,34.68
2023-05-24T13:25:22.528Z,37.40
2023-05-24T13:27:51.205Z,39.31
2023-05-24T13:30:27.321Z,41.92
2023-05-24T13:32:58.672Z,43.58
2023-05-24T13:35:27.139Z,43.77
2023-05-24T13:37:58.013Z,44.49
2023-05-24T13:40:27.030Z,45.88
2023-05-24T13:42:56.995Z,46.12
2023-05-24T13:45:25.543Z,46.61
2023-05-24T13:47:58.380Z,47.59
2023-05-24T13:50:28.347Z,49.80
2023-05-24T13:52:57.154Z,51.25
2023-05-24T13:55:25.596Z,52.51
2023-05-24T13:57:55.428Z,51.96
2023-05-24T14:00:24.268Z,51.09
2023-05-24T14:02:53.133Z,50.09
2023-05-24T14:05:26.585Z,48.83
2023-05-24T14:08:00.263Z,45.32
2023-05-24T14:10:29.235Z,43.81
2023-05-24T14:13:16.229Z,43.38
2023-05-24T14:15:47.244Z,43.70
2023-05-24T14:18:15.733Z,43.80
2023-05-24T14:20:44.194Z,44.23
2023-05-24T14:23:14.487Z,46.17
2023-05-24T14:25:43.291Z,46.95
2023-05-24T14:28:12.835Z,48.40
2023-05-24T14:30:41.959Z,49.25
2023-05-24T14:33:11.421Z,50.64
2023-05-24T14:35:40.589Z,50.52
2023-05-24T14:38:09.756Z,50.61
2023-05-24T14:40:40.771Z,51.02
2023-05-24T14:43:10.709Z,49.78
2023-05-24T14:45:41.282Z,49.06
2023-05-24T14:48:12.024Z,48.36
2023-05-24T14:50:41.604Z,47.16
2023-05-24T14:53:12.191Z,46.60
2023-05-24T14:55:44.056Z,46.09
2023-05-24T14:58:13.278Z,44.49
2023-05-24T15:00:45.622Z,42.51
2023-05-24T15:03:16.190Z,41.68
2023-05-24T15:05:44.753Z,42.71
2023-05-24T15:08:13.787Z,43.41
2023-05-24T15:10:45.321Z,44.81
2023-05-24T15:13:14.423Z,44.93
2023-05-24T15:15:43.298Z,44.74
2023-05-24T15:18:12.017Z,44.07
2023-05-24T15:20:41.122Z,43.39
2023-05-24T15:23:10.888Z,42.98
2023-05-24T15:25:39.447Z,40.13
2023-05-24T15:28:12.851Z,39.91
2023-05-24T15:30:44.126Z,39.86
2023-05-24T15:33:13.267Z,40.35
2023-05-24T15:35:42.185Z,41.80
2023-05-24T15:38:10.586Z,42.77
2023-05-24T15:40:41.963Z,44.16
2023-05-24T15:43:12.039Z,44.61
2023-05-24T15:45:40.637Z,47.83
2023-05-24T15:48:09.142Z,48.24
2023-05-24T15:53:12.664Z,48.07
2023-05-24T15:55:41.181Z,48.42
2023-05-24T15:58:10.154Z,48.99
2023-05-24T16:00:39.978Z,48.98
2023-05-24T16:03:08.426Z,48.11
2023-05-24T16:05:37.037Z,48.90
2023-05-24T16:08:05.684Z,48.09
2023-05-24T16:10:35.722Z,48.98
2023-05-24T16:13:04.304Z,49.01
2023-05-24T16:15:39.738Z,47.70
2023-05-24T16:18:10.395Z,47.78
2023-05-24T16:20:44.526Z,48.42
2023-05-24T16:23:13.670Z,48.69
2023-05-24T16:25:41.992Z,46.39
2023-05-24T16:28:10.349Z,46.21
2023-05-24T16:30:38.703Z,47.80
2023-05-24T16:33:07.266Z,48.00
2023-05-24T16:35:37.270Z,47.01
2023-05-24T16:38:05.563Z,47.82
2023-05-24T16:40:33.898Z,48.66
2023-05-24T16:43:02.477Z,49.51
2023-05-24T16:45:30.790Z,49.65
2023-05-24T16:47:59.320Z,50.73
2023-05-24T16:50:28.151Z,51.94
2023-05-24T16:52:57.804Z,53.10
2023-05-24T16:55:26.143Z,54.92
2023-05-24T16:57:54.455Z,55.66
2023-05-24T17:00:23.392Z,56.61
2023-05-24T17:02:51.908Z,57.05
2023-05-24T17:05:20.326Z,57.30
2023-05-24T17:07:48.638Z,57.62
2023-05-24T17:10:18.941Z,58.22
2023-05-24T17:12:48.439Z,58.42
2023-05-24T17:15:16.974Z,58.15
2023-05-24T17:17:45.560Z,57.50
2023-05-24T17:20:14.074Z,57.45
2023-05-24T17:22:42.457Z,57.16
2023-05-24T17:25:11.401Z,57.67
2023-05-24T17:27:41.050Z,58.40
2023-05-24T17:30:10.246Z,58.74
2023-05-24T17:32:38.707Z,59.52
2023-05-24T17:35:07.137Z,59.61
2023-05-24T17:37:35.543Z,59.90
2023-05-24T17:40:03.897Z,59.86
2023-05-24T17:42:32.481Z,59.79
2023-05-24T17:45:02.227Z,59.27
2023-05-24T17:47:30.798Z,59.45
2023-05-24T17:50:00.639Z,59.86
2023-05-24T17:52:29.609Z,59.11
2023-05-24T17:54:57.911Z,59.31
2023-05-24T17:57:27.441Z,59.28
2023-05-24T17:59:56.230Z,58.89
2023-05-24T18:02:26.573Z,59.49
2023-05-24T18:04:55.548Z,59.80
2023-05-24T18:07:24.257Z,59.85
2023-05-24T18:09:53.079Z,60.42
2023-05-24T18:12:21.810Z,60.37
2023-05-24T18:14:50.509Z,60.34
2023-05-24T18:17:18.939Z,60.18
2023-05-24T18:19:48.638Z,60.30
2023-05-24T18:22:17.341Z,60.86
2023-05-24T18:24:45.837Z,60.83
2023-05-24T18:27:14.368Z,61.49
2023-05-24T18:29:42.699Z,60.42
2023-05-24T18:32:10.991Z,60.69
2023-05-24T18:34:39.330Z,60.35
2023-05-24T18:37:09.351Z,60.28
2023-05-24T18:39:38.387Z,60.98
2023-05-24T18:42:09.028Z,61.53
2023-05-24T18:44:37.923Z,62.05
2023-05-24T18:47:06.498Z,62.28
2023-05-24T18:49:37.007Z,62.76
2023-05-24T18:52:12.922Z,63.62
2023-05-24T18:54:49.783Z,64.15
2023-05-24T18:57:22.200Z,64.64
2023-05-24T18:59:54.156Z,65.65
2023-05-24T19:02:39.181Z,66.34
2023-05-24T19:05:19.313Z,67.58
2023-05-24T19:07:48.856Z,68.03
2023-05-24T19:10:36.274Z,68.34
2023-05-24T19:13:28.104Z,69.18
2023-05-24T19:16:00.533Z,69.70
2023-05-24T19:18:29.421Z,69.95
2023-05-24T19:21:03.471Z,70.35
2023-05-24T19:23:32.577Z,70.81
2023-05-24T19:26:04.702Z,71.68
2023-05-24T19:28:40.774Z,72.48
2023-05-24T19:31:11.424Z,73.32
2023-05-24T19:33:59.274Z,74.66
2023-05-24T19:36:34.029Z,75.08
2023-05-24T19:39:06.146Z,76.29
2023-05-24T19:41:37.548Z,76.38
2023-05-24T19:44:08.134Z,77.66
2023-05-24T19:46:37.174Z,78.42
2023-05-24T19:49:07.103Z,79.72
2023-05-24T19:51:37.774Z,80.72
2023-05-24T19:54:11.885Z,80.87
2023-05-24T19:56:44.336Z,81.99
2023-05-24T19:59:18.190Z,82.22
2023-05-24T20:01:46.893Z,83.05
2023-05-24T20:04:15.770Z,83.60
2023-05-24T20:06:47.996Z,83.82
2023-05-24T20:09:18.783Z,84.26
2023-05-24T20:11:48.248Z,84.87
2023-05-24T20:14:20.194Z,85.54
2023-05-24T20:16:58.019Z,86.27
2023-05-24T20:19:34.333Z,85.98
2023-05-24T20:22:04.138Z,86.46
2023-05-24T20:24:37.894Z,87.39
2023-05-24T20:27:14.848Z,87.58
2023-05-24T20:29:48.528Z,87.96
2023-05-24T20:32:23.732Z,88.46
2023-05-24T20:34:57.842Z,88.61
2023-05-24T20:37:32.396Z,88.96
2023-05-24T20:40:04.886Z,89.13
2023-05-24T20:42:36.002Z,89.44
2023-05-24T20:45:07.163Z,89.77
2023-05-24T20:47:35.737Z,90.05
2023-05-24T20:50:04.595Z,89.70
2023-05-24T20:52:35.840Z,89.44
2023-05-24T20:55:08.016Z,89.06
2023-05-24T20:57:37.164Z,88.70
2023-05-24T21:00:08.981Z,88.17
2023-05-24T21:02:38.007Z,88.02
2023-05-24T21:05:08.833Z,87.49
2023-05-24T21:07:37.415Z,86.87
2023-05-24T21:10:06.051Z,87.12
2023-05-24T21:12:34.476Z,87.57
2023-05-24T21:15:02.977Z,87.77
2023-05-24T21:17:32.621Z,87.98
2023-05-24T21:20:03.396Z,87.71
2023-05-24T21:22:31.818Z,87.95
2023-05-24T21:25:00.154Z,87.96
2023-05-24T21:27:28.619Z,88.35
2023-05-24T21:29:56.916Z,88.15
2023-05-24T21:32:25.549Z,88.65
2023-05-24T21:34:56.508Z,88.43
2023-05-24T21:37:30.787Z,88.83
2023-05-24T21:40:00.835Z,88.56
2023-05-24T21:42:29.755Z,88.65
2023-05-24T21:45:07.485Z,88.89
2023-05-24T21:47:36.926Z,89.51
2023-05-24T21:50:07.802Z,90.29
2023-05-24T21:52:36.347Z,90.04
2023-05-24T21:55:13.081Z,90.43
2023-05-24T21:57:41.775Z,90.71
2023-05-24T22:00:12.262Z,91.40
2023-05-24T22:02:47.571Z,92.13
2023-05-24T22:05:20.242Z,92.82
2023-05-24T22:07:58.740Z,93.16
2023-05-24T22:10:27.858Z,93.84
2023-05-24T22:13:24.446Z,94.03
2023-05-24T22:15:53.718Z,94.20
2023-05-24T22:18:22.164Z,94.57
2023-05-24T22:20:52.870Z,95.13
2023-05-24T22:23:21.614Z,94.84
2023-05-24T22:25:50.111Z,93.61
2023-05-24T22:28:19.875Z,92.77
2023-05-24T22:30:48.413Z,92.67
2023-05-24T22:33:16.712Z,92.57
2023-05-24T22:35:45.163Z,92.87
2023-05-24T22:38:15.170Z,93.01
2023-05-24T22:40:44.171Z,93.20
2023-05-24T22:43:12.668Z,93.48
2023-05-24T22:45:41.173Z,94.00
2023-05-24T22:48:10.370Z,94.51
2023-05-24T22:50:39.195Z,94.99
2023-05-24T22:53:09.080Z,95.46
2023-05-24T22:55:38.737Z,95.66
2023-05-24T22:58:07.221Z,96.34
2023-05-24T23:00:35.563Z,97.38
2023-05-24T23:03:04.076Z,97.99
2023-05-24T23:05:32.455Z,97.96
2023-05-24T23:08:03.476Z,98.16
2023-05-24T23:10:31.848Z,98.38
2023-05-24T23:13:01.456Z,97.92
2023-05-24T23:15:31.894Z,97.14
2023-05-24T23:18:00.583Z,96.98
2023-05-24T23:20:29.533Z,97.26
2023-05-24T23:22:58.890Z,97.50
2023-05-24T23:25:27.203Z,98.03
2023-05-24T23:27:55.759Z,98.60
2023-05-24T23:30:25.503Z,98.98
2023-05-24T23:32:53.735Z,98.98
2023-05-24T23:35:22.020Z,98.55
2023-05-24T23:37:50.280Z,98.71
2023-05-24T23:40:18.579Z,98.45
2023-05-24T23:42:46.894Z,98.85
2023-05-24T23:45:16.436Z,98.72
2023-05-24T23:47:46.469Z,99.08
2023-05-24T23:50:17.404Z,99.15
2023-05-24T23:53:00.157Z,98.81
2023-05-24T23:55:28.535Z,99.07
2023-05-24T23:57:56.809Z,98.97
